Time;durP1;ratioP1;P1;durP2;ratioP2;P2;SDS_P1;SDS_P2;PMS_P1;PMS_P2;Temp;Humidity;BMP_temperature;BMP_pressure;BME280_temperature;BME280_humidity;BME280_pressure;Samples;Min_cycle;Max_cycle;Signal;HPM_P1;HPM_P2
2023/09/13 00:45:44;;;;;;;13.60;11.50;;;;;;;19.29;75.43;96492.20;109538;1283;22754;-96
2023/09/13 00:49:02;;;;;;;13.90;12.50;;;;;;;19.12;75.70;96487.39;109231;1277;22557;-95
2023/09/13 00:52:57;;;;;;;12.90;11.70;;;;;;;18.98;76.25;96484.03;108914;1288;22566;-96
2023/09/13 00:56:36;;;;;;;;;;;;;;;;;;;;;
2023/09/13 01:02:45;;;;;;;;;;;;;;;;;;;;;
2023/09/13 01:20:03;;;;;;;13.80;12.30;;;;;;;18.71;78.21;96484.81;91340;1270;23329;31
2023/09/13 01:23:28;;;;;;;12.70;11.40;;;;;;;18.69;78.27;96485.14;106443;1282;22447;-96
2023/09/13 01:26:48;;;;;;;14.40;12.00;;;;;;;18.71;78.55;96485.73;108656;1277;22537;-95
2023/09/13 01:30:05;;;;;;;;;;;;;;;;;;;;;
2023/09/13 01:33:01;;;;;;;15.60;12.30;;;;;;;18.75;78.60;96477.19;108891;1277;22558;-96
2023/09/13 01:35:51;;;;;;;14.30;12.50;;;;;;;18.75;78.54;96485.89;108694;1273;22862;-94
2023/09/13 01:38:56;;;;;;;14.20;12.20;;;;;;;18.68;78.59;96479.11;108802;1285;85806;-94
2023/09/13 01:42:14;;;;;;;14.00;12.30;;;;;;;18.64;78.67;96478.85;109060;1280;22742;-95
2023/09/13 01:45:07;;;;;;;14.00;12.50;;;;;;;18.62;78.91;96474.75;109244;1285;22499;-96
2023/09/13 01:48:29;;;;;;;14.50;12.60;;;;;;;18.61;79.16;96476.79;109109;1285;22588;-95
2023/09/13 01:51:21;;;;;;;16.50;12.40;;;;;;;18.62;79.27;96474.69;109097;1285;22574;-96
2023/09/13 01:54:40;;;;;;;13.20;11.80;;;;;;;18.63;79.19;96473.33;108863;1292;22583;-95
2023/09/13 01:57:26;;;;;;;14.70;11.60;;;;;;;18.60;79.25;96478.07;108929;1285;23336;-96
2023/09/13 02:00:20;;;;;;;13.60;12.20;;;;;;;18.56;79.30;96471.19;108465;1281;133606;-96
2023/09/13 02:02:55;;;;;;;14.50;12.70;;;;;;;18.57;79.52;96467.01;108221;1285;22614;-94
2023/09/13 02:05:39;;;;;;;13.60;11.80;;;;;;;18.57;79.47;96468.62;108229;1283;22560;-96
2023/09/13 02:08:34;;;;;;;14.80;11.80;;;;;;;18.61;79.58;96471.03;108718;1285;22582;-95
2023/09/13 02:11:27;;;;;;;13.10;11.60;;;;;;;18.65;79.59;96474.58;108845;1279;22541;-96
2023/09/13 02:14:23;;;;;;;17.80;12.60;;;;;;;18.71;79.62;96472.69;109034;1285;23002;-96
2023/09/13 02:17:05;;;;;;;13.30;11.90;;;;;;;18.74;79.59;96472.94;108971;1258;23075;-94
2023/09/13 02:19:40;;;;;;;14.00;11.60;;;;;;;18.81;79.53;96476.17;108513;1277;87156;-94
2023/09/13 02:22:11;;;;;;;12.60;10.20;;;;;;;18.84;79.38;96473.73;108812;1284;22616;-96
2023/09/13 02:25:04;;;;;;;15.00;11.60;;;;;;;18.84;79.21;96474.65;108576;1277;22555;-96
2023/09/13 02:27:45;;;;;;;12.40;10.90;;;;;;;18.84;79.13;96476.27;108503;1279;23371;-95
2023/09/13 02:30:41;;;;;;;15.40;11.10;;;;;;;18.84;79.05;96474.65;108265;1284;60254;-95
2023/09/13 02:33:20;;;;;;;14.50;11.40;;;;;;;18.84;79.00;96472.52;108088;1267;22546;-94
2023/09/13 02:36:20;;;;;;;12.90;10.00;;;;;;;18.86;78.79;96470.91;108544;1284;22593;-95
2023/09/13 02:38:55;;;;;;;14.30;10.70;;;;;;;18.88;78.57;96472.81;108670;1277;67055;-96
2023/09/13 02:42:04;;;;;;;17.20;11.90;;;;;;;18.89;78.59;96473.61;108774;1280;22656;-95
2023/09/13 02:44:53;;;;;;;11.70;10.30;;;;;;;18.88;78.48;96470.05;108879;1276;22555;-94
2023/09/13 02:47:32;;;;;;;13.10;10.60;;;;;;;18.88;78.44;96470.96;108691;1284;23211;-93
2023/09/13 02:50:24;;;;;;;14.50;11.50;;;;;;;18.89;78.32;96471.76;104464;1277;5206566;-94
2023/09/13 02:53:14;;;;;;;12.50;10.70;;;;;;;18.88;78.30;96470.20;108458;1280;22530;-94
2023/09/13 02:55:50;;;;;;;14.20;11.40;;;;;;;18.88;78.15;96470.58;108470;1281;22714;-96
2023/09/13 02:58:38;;;;;;;14.20;10.00;;;;;;;18.89;78.06;96472.61;108460;1281;22566;-94
2023/09/13 03:01:14;;;;;;;14.20;10.20;;;;;;;18.89;78.03;96464.31;108516;1284;22667;-95
2023/09/13 03:04:00;;;;;;;11.50;10.30;;;;;;;18.92;77.93;96466.11;108309;1276;25293;-94
2023/09/13 03:06:34;;;;;;;13.00;11.10;;;;;;;18.93;77.84;96464.12;108344;1265;22720;-91
2023/09/13 03:09:13;;;;;;;15.40;11.30;;;;;;;18.93;77.77;96464.52;108465;1284;24121;-93
2023/09/13 03:12:24;;;;;;;13.50;10.80;;;;;;;18.95;77.65;96467.03;108558;1284;22520;-94
2023/09/13 03:14:59;;;;;;;17.00;11.00;;;;;;;18.92;77.51;96466.48;108569;1284;22597;-94
2023/09/13 03:18:03;;;;;;;12.80;10.50;;;;;;;18.89;77.40;96464.77;108427;1277;23882;-94
2023/09/13 03:20:56;;;;;;;;;;;;;;;;;;;;;
2023/09/13 03:23:57;;;;;;;16.00;10.90;;;;;;;18.85;77.40;96463.95;108476;1274;23350;-94
2023/09/13 03:26:32;;;;;;;12.80;9.20;;;;;;;18.83;77.25;96460.81;108377;1282;22556;-96
2023/09/13 03:29:17;;;;;;;17.40;10.80;;;;;;;18.80;77.11;96459.02;104389;1275;5459093;-93
2023/09/13 03:32:08;;;;;;;13.40;9.80;;;;;;;18.83;77.04;96463.95;108487;1282;22552;-95
2023/09/13 03:34:59;;;;;;;;;;;;;;;;;;;;;
2023/09/13 03:38:31;;;;;;;12.00;9.40;;;;;;;18.88;76.74;96455.45;108729;1275;22672;-93
2023/09/13 03:45:20;;;;;;;12.60;9.90;;;;;;;18.97;76.28;96459.79;108675;1282;23876;-94
2023/09/13 03:48:56;;;;;;;14.10;9.40;;;;;;;18.94;76.09;96456.72;108074;1290;22595;-93
2023/09/13 03:51:32;;;;;;;14.20;9.70;;;;;;;18.92;75.92;96456.35;107558;1291;85341;-94
2023/09/13 03:54:20;;;;;;;12.50;9.60;;;;;;;18.91;75.84;96453.64;107984;1291;23763;-94
2023/09/13 03:57:06;;;;;;;15.30;9.90;;;;;;;18.90;75.81;96450.94;107938;1284;22541;-93
2023/09/13 04:03:07;;;;;;;13.80;9.50;;;;;;;18.81;75.77;96453.55;108252;1290;23243;-94
2023/09/13 04:10:12;;;;;;;13.10;9.40;;;;;;;18.71;75.59;96453.82;109065;1259;102777;-96
2023/09/13 04:13:00;;;;;;;;;;;;;;;18.71;75.61;96457.17;108737;1275;22550;-95
2023/09/13 04:16:10;;;;;;;13.70;9.30;;;;;;;18.70;75.64;96453.16;108857;1282;23729;-95
2023/09/13 04:19:15;;;;;;;15.00;9.10;;;;;;;18.70;75.55;96453.95;109235;1259;22531;-95
2023/09/13 04:22:45;;;;;;;14.20;9.00;;;;;;;18.73;75.40;96455.30;109134;1282;23867;-95
2023/09/13 04:28:34;;;;;;;16.80;10.10;;;;;;;18.86;75.22;96458.83;108665;1282;22935;-95
2023/09/13 04:31:35;;;;;;;14.40;9.60;;;;;;;18.92;75.08;96460.87;108466;1275;59938;-95
2023/09/13 04:37:51;;;;;;;15.60;9.60;;;;;;;19.01;74.51;96454.02;108357;1289;22967;-94
2023/09/13 04:40:31;;;;;;;13.60;9.10;;;;;;;19.06;74.40;96459.63;108080;1293;110802;-94
2023/09/13 04:43:29;;;;;;;15.30;9.20;;;;;;;19.01;74.37;96455.64;107852;1292;22604;-93
2023/09/13 04:46:07;;;;;;;13.90;9.60;;;;;;;18.99;74.32;96455.93;107880;1286;22550;-93
2023/09/13 04:48:45;;;;;;;16.50;10.00;;;;;;;18.96;74.26;96453.26;108028;1286;24088;-94
2023/09/13 04:51:29;;;;;;;13.70;9.30;;;;;;;18.95;74.23;96452.30;106709;1283;1921265;-92
2023/09/13 04:54:22;;;;;;;13.70;10.00;;;;;;;18.94;74.31;96450.51;108163;1287;22571;-94
2023/09/13 04:57:08;;;;;;;17.10;9.50;;;;;;;18.91;74.35;96446.26;108131;1283;22805;-91
2023/09/13 05:00:04;;;;;;;13.80;9.10;;;;;;;18.93;74.41;96455.86;107984;1284;78387;-94
2023/09/13 05:02:46;;;;;;;16.30;9.30;;;;;;;18.96;74.34;96454.80;108428;1282;22567;-95
2023/09/13 05:05:16;;;;;;;15.30;10.30;;;;;;;19.00;74.33;96457.29;108438;1276;22526;-89
2023/09/13 05:07:50;;;;;;;16.30;10.10;;;;;;;19.07;74.28;96456.35;108482;1275;22538;-94
2023/09/13 05:10:40;;;;;;;16.10;9.20;;;;;;;19.20;74.29;96460.00;108368;1277;75221;-94
2023/09/13 05:13:23;;;;;;;14.00;9.80;;;;;;;19.31;74.09;96460.58;108511;1274;22706;-94
2023/09/13 05:15:56;;;;;;;15.00;9.80;;;;;;;19.48;73.95;96455.93;108619;1282;22481;-95
2023/09/13 05:18:33;;;;;;;15.30;9.60;;;;;;;19.71;73.72;96458.38;108768;1274;22516;-94
2023/09/13 05:21:02;;;;;;;13.20;8.60;;;;;;;19.96;73.18;96457.34;108539;1278;91856;-92
2023/09/13 05:23:36;;;;;;;14.20;9.10;;;;;;;20.06;72.51;96459.62;108447;1282;22551;-90
2023/09/13 05:26:05;;;;;;;12.70;9.30;;;;;;;20.03;72.19;96460.85;108422;1276;25448;-83
2023/09/13 05:28:50;;;;;;;15.40;9.50;;;;;;;20.07;71.92;96455.71;108337;1275;22661;-82
2023/09/13 05:31:42;;;;;;;13.10;9.40;;;;;;;20.18;71.61;96460.00;108107;1280;187374;-84
2023/09/13 05:37:15;;;;;;;11.80;8.90;;;;;;;20.36;71.45;96454.36;108268;1282;23846;-83
2023/09/13 05:42:58;;;;;;;17.80;9.50;;;;;;;20.95;70.38;96448.15;108254;1282;22530;-82
2023/09/13 05:45:50;;;;;;;12.00;8.50;;;;;;;21.16;69.80;96450.73;108201;1279;24097;-83
2023/09/13 05:48:59;;;;;;;14.10;8.80;;;;;;;21.32;69.11;96451.05;108188;1274;22537;-84
2023/09/13 05:51:32;;;;;;;15.60;9.30;;;;;;;21.39;68.65;96447.04;105749;1275;2779627;-82
2023/09/13 05:54:24;;;;;;;16.70;9.00;;;;;;;21.36;67.89;96443.73;108246;1276;25779;-83
2023/09/13 05:57:13;;;;;;;;;;;;;;;;;;;;;
2023/09/13 06:00:23;;;;;;;16.00;9.20;;;;;;;21.21;67.81;96447.05;107544;1282;50841;-82
2023/09/13 06:06:49;;;;;;;20.60;9.60;;;;;;;21.03;67.76;96446.89;107991;1277;22578;-84
2023/09/13 06:21:16;;;;;;;;;;;;;;;;;;;;;
2023/09/13 06:30:57;;;;;;;14.30;8.70;;;;;;;21.77;68.05;96455.69;105409;1300;73590;-83
2023/09/13 06:34:01;;;;;;;13.50;9.60;;;;;;;21.89;68.23;96464.05;106844;1291;22744;-83
2023/09/13 06:37:14;;;;;;;12.70;9.10;;;;;;;22.21;68.16;96462.86;107346;1293;22657;-84
2023/09/13 06:40:33;;;;;;;14.10;9.10;;;;;;;22.39;67.70;96462.20;106940;1290;23835;-83
2023/09/13 06:47:30;;;;;;;12.50;8.20;;;;;;;22.84;66.65;96468.25;107631;1288;23407;-84
2023/09/13 06:50:10;;;;;;;15.10;8.70;;;;;;;22.90;66.20;96466.42;107693;1283;24384;-83
2023/09/13 06:52:42;;;;;;;15.90;8.30;;;;;;;23.22;66.23;96470.96;103865;1280;5383356;-83
2023/09/13 06:55:47;;;;;;;;;;;;;;;;;;;;;
2023/09/13 07:02:18;;;;;;;14.70;8.30;;;;;;;23.86;64.25;96473.14;107009;1286;56605;-83
2023/09/13 07:05:18;;;;;;;;;;;;;;;;;;;;;
2023/09/13 07:08:05;;;;;;;15.90;7.90;;;;;;;24.30;63.14;96469.64;107706;1284;23850;-83
2023/09/13 08:51:38;;;;;;;15.00;7.90;;;;;;;25.67;58.09;96493.10;108431;1278;193695;-83
2023/09/13 08:54:26;;;;;;;15.80;7.70;;;;;;;25.79;58.19;96490.70;108340;1279;108592;-83
2023/09/13 08:57:37;;;;;;;13.20;6.90;;;;;;;26.02;58.27;96486.77;108308;1280;22574;-83
2023/09/13 09:04:32;;;;;;;13.50;7.60;;;;;;;26.37;57.91;96486.08;103785;1284;5280503;-83
2023/09/13 09:19:24;;;;;;;;;;;;;;;;;;;;;
2023/09/13 09:22:19;;;;;;;17.10;7.90;;;;;;;27.08;56.43;96478.38;107379;1295;22871;-82
2023/09/13 09:25:20;;;;;;;18.40;7.50;;;;;;;27.11;56.67;96472.77;107558;1286;127916;-82
2023/09/13 09:28:08;;;;;;;;;;;;;;;;;;;;;
2023/09/13 09:31:30;;;;;;;13.30;7.30;;;;;;;27.17;55.88;96471.21;107402;1283;24252;-82
2023/09/13 09:34:26;;;;;;;;;;;;;;;;;;;;;
2023/09/13 09:37:46;;;;;;;;;;;;;;;;;;;;;
2023/09/13 09:40:21;;;;;;;13.90;6.60;;;;;;;27.31;55.99;96474.31;107861;1280;22974;-84
2023/09/13 09:43:59;;;;;;;15.30;7.40;;;;;;;27.33;55.40;96471.52;108190;1280;46194;-83
2023/09/13 09:46:57;;;;;;;15.20;7.00;;;;;;;27.30;55.21;96470.17;108369;1271;22538;-82
2023/09/13 09:49:32;;;;;;;13.20;7.10;;;;;;;27.30;55.18;96471.98;108393;1280;22643;-83
2023/09/13 09:52:24;;;;;;;15.10;7.60;;;;;;;27.30;54.58;96470.05;108249;1257;22591;-82
2023/09/13 09:55:33;;;;;;;11.30;6.60;;;;;;;27.30;53.84;96467.86;104001;1274;5259779;-82
2023/09/13 09:58:39;;;;;;;11.70;6.60;;;;;;;27.03;52.60;96464.85;108033;1277;22568;-82
2023/09/13 10:01:55;;;;;;;10.10;6.40;;;;;;;27.04;52.63;96471.30;108413;1280;22708;-82
2023/09/13 10:09:22;;;;;;;;;;;;;;;;;;;;;
2023/09/13 10:12:22;;;;;;;13.40;6.50;;;;;;;26.88;51.32;96463.50;107892;1280;22581;-81
2023/09/13 10:15:26;;;;;;;11.80;6.80;;;;;;;27.03;51.51;96459.23;108694;1272;78524;-82
2023/09/13 10:21:22;;;;;;;14.80;7.00;;;;;;;27.19;52.45;96455.58;108806;1268;22560;-82
2023/09/13 10:24:10;;;;;;;16.50;7.80;;;;;;;27.40;52.15;96456.88;108711;1271;22549;-81
2023/09/13 10:27:03;;;;;;;12.60;6.50;;;;;;;27.45;51.88;96456.17;108759;1276;24155;-81
2023/09/13 10:30:01;;;;;;;14.60;7.10;;;;;;;27.40;51.34;96453.61;108737;1273;23815;-81
2023/09/13 10:33:03;;;;;;;14.30;6.70;;;;;;;27.42;51.24;96452.90;108836;1276;22536;-81
2023/09/13 10:36:00;;;;;;;13.20;6.80;;;;;;;27.41;50.35;96457.42;108700;1269;70339;-81
2023/09/13 10:39:17;;;;;;;;;;;;;;;;;;;;;
2023/09/13 10:42:34;;;;;;;11.70;6.20;;;;;;;27.34;48.79;96450.45;108704;1276;22527;-81
2023/09/13 10:45:58;;;;;;;12.50;7.10;;;;;;;27.31;48.81;96448.65;108535;1275;70768;-80
2023/09/13 10:49:02;;;;;;;16.00;6.80;;;;;;;27.40;49.34;96445.98;108728;1276;22557;-81
2023/09/13 10:51:49;;;;;;;9.30;6.40;;;;;;;27.49;49.40;96444.27;108800;1265;25462;-81
2023/09/13 10:54:59;;;;;;;11.80;6.50;;;;;;;27.51;48.73;96445.81;108694;1268;91249;-81
2023/09/13 10:57:41;;;;;;;11.80;6.30;;;;;;;27.48;47.80;96446.36;108672;1260;22543;-81
2023/09/13 11:00:31;;;;;;;12.90;6.70;;;;;;;27.47;47.69;96444.73;108724;1275;22740;-82
2023/09/13 11:06:20;;;;;;;11.50;6.50;;;;;;;27.58;47.36;96445.86;108613;1276;22562;-81
2023/09/13 11:09:24;;;;;;;10.60;6.00;;;;;;;27.50;46.49;96443.17;108635;1269;22839;-81
2023/09/13 11:15:13;;;;;;;12.30;6.90;;;;;;;27.63;46.93;96429.23;108709;1276;54973;-80
2023/09/13 11:17:56;;;;;;;10.00;6.60;;;;;;;27.72;46.99;96430.77;108776;1275;22524;-80
2023/09/13 11:23:40;;;;;;;10.50;6.40;;;;;;;27.93;47.59;96440.05;108916;1253;22958;-80
2023/09/13 11:26:49;;;;;;;8.80;5.80;;;;;;;28.03;47.48;96440.47;108776;1275;23074;-81
2023/09/13 11:33:04;;;;;;;12.50;6.60;;;;;;;27.96;46.37;96442.44;108907;1269;22101;-82
2023/09/13 13:24:30;;;;;;;16.10;8.60;;;;;;;28.69;44.69;96408.33;105588;1307;22562;-88
2023/09/13 13:27:38;;;;;;;12.50;8.30;;;;;;;28.72;44.91;96415.54;102172;1301;5259020;-88
2023/09/13 13:38:08;;;;;;;;;;;;;;;;;;;;;
2023/09/13 13:45:18;;;;;;;;;;;;;;;;;;;;;
2023/09/13 13:48:25;;;;;;;;;;;;;;;;;;;;;
2023/09/13 15:39:04;;;;;;;;;;;;;;;;;;;;;
2023/09/13 15:45:38;;;;;;;;;;;;;;;;;;;;;
2023/09/13 15:48:48;;;;;;;11.20;8.20;;;;;;;27.77;55.89;96380.64;104808;1271;5186273;-91
2023/09/13 15:55:11;;;;;;;;;;;;;;;;;;;;;
2023/09/13 15:58:09;;;;;;;;;;;;;;;;;;;;;
2023/09/13 16:01:07;;;;;;;12.40;8.40;;;;;;;26.94;56.39;96370.13;108195;1282;23692;-92
2023/09/13 16:03:56;;;;;;;10.70;7.90;;;;;;;26.70;56.58;96369.13;108158;1275;23269;-92
2023/09/13 16:07:01;;;;;;;12.40;8.40;;;;;;;26.51;57.13;96364.23;108266;1276;22534;-91
2023/09/13 16:13:47;;;;;;;13.00;9.10;;;;;;;26.10;58.13;96371.45;108384;1282;22619;-90
2023/09/13 16:16:40;;;;;;;14.40;9.30;;;;;;;26.09;58.92;96370.52;108182;1277;24165;-89
2023/09/13 16:19:46;;;;;;;11.70;8.90;;;;;;;26.05;59.01;96367.34;108354;1277;62680;-90
2023/09/13 16:22:30;;;;;;;11.20;9.10;;;;;;;25.84;58.60;96366.41;108328;1275;22533;-86
2023/09/13 16:25:28;;;;;;;14.70;10.50;;;;;;;25.35;58.98;96371.69;108361;1277;22715;-86
2023/09/13 16:28:28;;;;;;;12.40;9.00;;;;;;;24.84;59.55;96371.63;108354;1275;22525;-86
2023/09/13 16:31:21;;;;;;;15.10;9.30;;;;;;;24.44;60.34;96362.26;108498;1276;22589;-87
2023/09/13 16:34:02;;;;;;;21.90;16.30;;;;;;;24.24;60.83;96364.30;108708;1271;25425;-86
2023/09/13 16:36:49;;;;;;;472.80;305.20;;;;;;;24.02;61.35;96367.48;108851;1271;22524;-86
2023/09/13 16:39:43;;;;;;;292.70;175.80;;;;;;;23.74;61.93;96363.07;107514;1268;1929768;-87
2023/09/13 16:42:51;;;;;;;60.30;38.70;;;;;;;23.55;62.44;96364.68;108955;1269;22669;-86
2023/09/13 16:46:10;;;;;;;23.00;17.00;;;;;;;23.26;63.00;96365.15;108923;1268;22702;-85
2023/09/13 16:48:59;;;;;;;16.00;12.60;;;;;;;23.03;63.58;96362.27;108855;1271;24900;-85
2023/09/13 16:51:36;;;;;;;14.10;10.40;;;;;;;22.84;63.92;96362.98;108958;1269;25309;-85
2023/09/13 16:57:42;;;;;;;37.30;23.40;;;;;;;22.50;65.03;96370.48;108956;1268;22559;-85
2023/09/13 17:00:33;;;;;;;25.70;17.50;;;;;;;22.38;65.44;96378.30;105081;1276;5055713;-86
2023/09/13 17:03:15;;;;;;;25.00;17.90;;;;;;;22.38;66.14;96379.98;108939;1276;22573;-85
2023/09/13 17:05:51;;;;;;;19.60;14.00;;;;;;;22.38;66.30;96385.93;108934;1276;25418;-86
2023/09/13 17:08:29;;;;;;;28.10;21.30;;;;;;;22.32;66.49;96387.52;108922;1276;22514;-86
2023/09/13 17:11:18;;;;;;;30.90;22.30;;;;;;;22.10;66.66;96394.43;108909;1269;41610;-86
2023/09/13 17:14:17;;;;;;;37.60;24.80;;;;;;;21.87;67.06;96400.08;108908;1271;23798;-86
2023/09/13 17:17:03;;;;;;;35.30;25.60;;;;;;;21.72;67.85;96398.02;108847;1254;22525;-85
2023/09/13 17:19:39;;;;;;;30.40;22.80;;;;;;;21.79;68.24;96402.38;108819;1272;83324;-85
2023/09/13 17:22:27;;;;;;;25.70;20.40;;;;;;;21.86;68.71;96405.08;108912;1276;25455;-85
2023/09/13 17:25:24;;;;;;;30.00;24.20;;;;;;;21.98;68.72;96410.86;108942;1275;22526;-85
2023/09/13 17:28:18;;;;;;;27.00;20.30;;;;;;;21.92;68.09;96416.15;108957;1275;22660;-85
2023/09/13 17:31:03;;;;;;;13.50;11.30;;;;;;;21.74;67.93;96424.34;108844;1274;68326;-86
2023/09/13 17:36:41;;;;;;;14.30;11.30;;;;;;;21.51;67.74;96431.65;108865;1276;23289;-85
2023/09/13 17:39:27;;;;;;;16.20;11.10;;;;;;;21.40;67.89;96432.94;108860;1271;22525;-86
2023/09/13 17:42:23;;;;;;;14.20;10.60;;;;;;;21.42;68.27;96435.77;108944;1273;23872;-86
2023/09/13 17:45:11;;;;;;;18.00;13.60;;;;;;;21.49;68.43;96438.92;108891;1273;23319;-86
2023/09/13 17:48:01;;;;;;;18.00;12.90;;;;;;;21.41;68.68;96438.77;108868;1272;22624;-85
2023/09/13 17:50:48;;;;;;;15.50;12.80;;;;;;;21.31;69.16;96439.23;108857;1273;57536;-85
2023/09/13 17:53:43;;;;;;;;;;;;;;;;;;;;;
2023/09/13 17:56:25;;;;;;;14.70;11.80;;;;;;;21.20;69.70;96439.19;108883;1276;22544;-85
2023/09/13 17:59:05;;;;;;;15.70;12.60;;;;;;;21.03;69.94;96437.79;108911;1276;25424;-85
2023/09/13 18:02:00;;;;;;;14.60;12.50;;;;;;;20.92;70.37;96434.68;108874;1276;72791;-85
2023/09/13 18:04:32;;;;;;;13.60;11.10;;;;;;;20.85;70.83;96435.59;108916;1270;22545;-85
2023/09/13 18:07:15;;;;;;;12.50;10.40;;;;;;;20.86;71.07;96436.78;108894;1269;22558;-85
2023/09/13 18:10:00;;;;;;;12.50;10.20;;;;;;;20.96;71.09;96434.39;108835;1268;89258;-85
2023/09/13 18:12:41;;;;;;;14.40;10.80;;;;;;;21.06;70.86;96435.16;108904;1268;22936;-85
2023/09/13 18:15:41;;;;;;;12.90;10.30;;;;;;;21.15;70.85;96433.91;108920;1269;22572;-85
2023/09/13 18:18:33;;;;;;;14.10;10.00;;;;;;;21.27;70.15;96432.66;108869;1273;22698;-85
2023/09/13 18:21:10;;;;;;;17.20;10.80;;;;;;;21.43;69.70;96432.16;108864;1269;62306;-85
2023/09/13 18:24:02;;;;;;;12.30;10.40;;;;;;;21.56;69.44;96424.96;108881;1268;22536;-86
2023/09/13 18:26:46;;;;;;;16.80;12.90;;;;;;;21.65;69.55;96419.06;108894;1275;22547;-85
2023/09/13 18:29:26;;;;;;;18.90;13.00;;;;;;;21.62;69.53;96418.02;108864;1272;23204;-85
2023/09/13 18:32:12;;;;;;;14.70;11.40;;;;;;;21.52;69.58;96415.41;108800;1273;84345;-85
2023/09/13 18:34:56;;;;;;;11.60;10.10;;;;;;;21.36;69.88;96418.06;108923;1276;22563;-86
2023/09/13 18:37:49;;;;;;;12.20;9.50;;;;;;;21.25;69.65;96415.02;108901;1269;23694;-86
2023/09/13 18:40:43;;;;;;;15.10;10.30;;;;;;;21.33;69.48;96415.02;107358;1273;2080197;-86
2023/09/13 18:43:27;;;;;;;11.80;10.00;;;;;;;21.45;69.16;96413.88;108944;1269;22560;-86
2023/09/13 18:46:22;;;;;;;12.20;9.60;;;;;;;21.55;68.77;96415.63;108890;1276;22565;-86
2023/09/13 18:49:17;;;;;;;14.70;11.50;;;;;;;21.60;68.79;96417.43;108962;1276;23796;-86
2023/09/13 18:52:03;;;;;;;13.90;10.20;;;;;;;21.50;68.59;96417.52;108868;1274;41053;-86
2023/09/13 18:54:45;;;;;;;14.10;9.90;;;;;;;21.45;68.89;96419.65;108982;1276;23084;-86
2023/09/13 18:57:40;;;;;;;13.20;10.30;;;;;;;21.52;68.81;96422.25;108877;1275;22649;-87
2023/09/13 19:00:33;;;;;;;11.00;9.40;;;;;;;21.49;68.34;96423.42;108877;1269;68832;-86
2023/09/13 19:03:22;;;;;;;11.40;9.40;;;;;;;21.37;68.49;96424.04;108903;1276;22643;-85
2023/09/13 19:06:17;;;;;;;14.30;9.90;;;;;;;21.19;68.61;96425.45;108805;1276;24180;-85
2023/09/13 19:09:19;;;;;;;13.10;11.20;;;;;;;21.11;69.01;96423.50;108583;1274;22576;-86
2023/09/13 19:12:24;;;;;;;14.20;10.90;;;;;;;20.99;68.97;96422.84;108795;1271;44741;-85
2023/09/13 19:15:28;;;;;;;13.70;9.20;;;;;;;20.97;68.95;96427.41;108910;1275;22523;-86
2023/09/13 19:19:08;;;;;;;14.60;10.30;;;;;;;20.94;68.88;96433.65;108703;1277;22569;-86
2023/09/13 19:25:19;;;;;;;12.70;9.70;;;;;;;20.93;68.95;96436.24;108494;1276;22533;-86
2023/09/13 19:28:38;;;;;;;;;;;;;;;;;;;;;
2023/09/13 19:31:26;;;;;;;12.00;9.10;;;;;;;20.88;69.04;96442.98;105377;1274;3985303;-85
2023/09/13 19:34:15;;;;;;;12.90;9.20;;;;;;;20.93;69.12;96442.39;108404;1280;25270;-85
2023/09/13 19:39:52;;;;;;;12.10;10.20;;;;;;;20.99;69.30;96439.54;108902;1269;40822;-85
2023/09/13 19:42:46;;;;;;;11.30;10.00;;;;;;;20.85;69.61;96440.52;108940;1275;22537;-85
2023/09/13 19:45:40;;;;;;;11.80;9.60;;;;;;;20.79;69.73;96442.12;108888;1256;22526;-85
2023/09/13 19:48:24;;;;;;;13.10;9.70;;;;;;;20.85;69.60;96440.61;108853;1269;23789;-85
2023/09/13 19:51:15;;;;;;;13.00;9.60;;;;;;;21.04;69.41;96448.58;108842;1272;48427;-86
2023/09/13 19:54:07;;;;;;;15.50;9.60;;;;;;;21.17;69.16;96453.59;108907;1273;24219;-85
2023/09/13 19:56:43;;;;;;;12.70;9.70;;;;;;;21.09;69.10;96468.89;108890;1275;22612;-85
2023/09/13 19:59:15;;;;;;;13.90;9.90;;;;;;;20.95;69.52;96469.18;108747;1276;22523;-85
2023/09/13 20:02:10;;;;;;;12.70;9.70;;;;;;;20.83;69.76;96476.03;108867;1275;59895;-86
2023/09/13 20:05:06;;;;;;;12.20;10.00;;;;;;;20.78;70.00;96482.68;108877;1273;22529;-85
2023/09/13 20:07:56;;;;;;;15.40;10.20;;;;;;;20.71;70.27;96483.14;108899;1269;22623;-85
2023/09/13 20:10:40;;;;;;;12.70;10.40;;;;;;;20.64;70.67;96489.19;108799;1276;151188;-86
2023/09/13 20:13:27;;;;;;;13.00;9.60;;;;;;;20.64;70.77;96494.73;108876;1275;26018;-85
2023/09/13 20:16:10;;;;;;;16.60;10.20;;;;;;;20.87;70.71;96495.29;108886;1275;22539;-86
2023/09/13 20:18:51;;;;;;;16.00;9.80;;;;;;;21.14;70.61;96487.41;108885;1273;22588;-86
2023/09/13 20:21:33;;;;;;;11.70;9.50;;;;;;;21.38;69.93;96493.39;108863;1269;79321;-86
2023/09/13 20:24:14;;;;;;;12.00;9.80;;;;;;;21.59;69.47;96493.26;108943;1275;22551;-86
2023/09/13 20:27:37;;;;;;;12.20;9.40;;;;;;;21.65;69.02;96492.53;108868;1275;22631;-86
2023/09/13 20:30:53;;;;;;;14.20;10.20;;;;;;;21.75;68.75;96495.83;108775;1269;101042;-86
2023/09/13 20:33:44;;;;;;;12.00;9.70;;;;;;;21.87;68.27;96503.89;108831;1270;22531;-86
2023/09/13 20:36:30;;;;;;;15.10;10.20;;;;;;;21.93;68.07;96504.39;108843;1264;22577;-86
2023/09/13 20:42:34;;;;;;;12.20;9.90;;;;;;;22.13;67.64;96504.22;108898;1268;22511;-86
2023/09/13 20:45:27;;;;;;;15.00;10.90;;;;;;;22.20;67.48;96506.81;108865;1253;22526;-87
2023/09/13 20:48:22;;;;;;;12.70;10.10;;;;;;;22.25;67.35;96510.48;108855;1272;22709;-86
2023/09/13 20:51:08;;;;;;;14.60;11.30;;;;;;;22.30;67.12;96512.80;108862;1276;36696;-86
2023/09/13 20:53:42;;;;;;;16.00;10.60;;;;;;;22.34;66.94;96515.96;108863;1270;22539;-86
2023/09/13 20:56:56;;;;;;;15.30;10.60;;;;;;;22.36;66.92;96515.15;108877;1273;24271;-86
2023/09/13 20:59:29;;;;;;;;;;;;;;;22.41;66.62;96516.65;108898;1262;22592;-86
2023/09/13 21:02:04;;;;;;;15.00;10.70;;;;;;;22.43;66.75;96518.31;108822;1273;73478;-86
2023/09/13 21:04:46;;;;;;;13.50;10.90;;;;;;;22.44;66.48;96521.73;108871;1269;22513;-86
2023/09/13 21:07:30;;;;;;;15.60;11.30;;;;;;;22.48;66.29;96523.56;108889;1272;22518;-87
2023/09/13 21:10:02;;;;;;;13.30;10.20;;;;;;;22.28;66.44;96536.75;108950;1272;78665;-86
2023/09/13 21:12:34;;;;;;;12.80;11.10;;;;;;;22.02;66.78;96542.67;108865;1271;22535;-86
2023/09/13 21:15:17;;;;;;;16.50;11.00;;;;;;;21.95;67.04;96542.77;108860;1272;22520;-87
2023/09/13 21:17:48;;;;;;;13.90;10.90;;;;;;;22.07;67.02;96554.90;108884;1276;22518;-86
2023/09/13 21:20:21;;;;;;;14.20;10.50;;;;;;;22.13;67.04;96558.52;108864;1271;49111;-86
2023/09/13 21:23:07;;;;;;;14.40;12.00;;;;;;;22.16;66.70;96556.82;108881;1265;22640;-86
2023/09/13 21:25:41;;;;;;;14.20;11.40;;;;;;;22.20;66.73;96558.20;108870;1275;23433;-86
2023/09/13 21:28:23;;;;;;;14.60;10.90;;;;;;;22.20;66.63;96555.02;108899;1268;22526;-86
2023/09/13 21:31:02;;;;;;;13.10;10.50;;;;;;;22.17;66.59;96554.11;108870;1272;58662;-85
2023/09/13 21:33:39;;;;;;;18.30;10.90;;;;;;;22.11;66.51;96558.73;108916;1268;23301;-86
2023/09/13 21:36:12;;;;;;;12.50;11.00;;;;;;;22.07;66.40;96556.98;108888;1274;22586;-86
2023/09/13 21:38:51;;;;;;;13.20;10.80;;;;;;;22.00;66.44;96554.66;108919;1276;22520;-87
2023/09/13 21:41:26;;;;;;;13.50;10.50;;;;;;;21.90;66.42;96551.14;107338;1269;2084248;-87
2023/09/13 21:44:00;;;;;;;11.90;10.60;;;;;;;21.82;66.46;96555.66;108863;1276;22496;-86
2023/09/13 21:46:43;;;;;;;12.60;10.60;;;;;;;21.73;66.62;96556.63;108896;1269;22530;-86
2023/09/13 21:49:18;;;;;;;12.70;9.40;;;;;;;21.63;66.89;96556.00;108932;1275;24215;-87
2023/09/13 21:51:58;;;;;;;14.50;10.20;;;;;;;21.54;67.13;96552.87;108843;1272;49875;-87
2023/09/13 21:54:39;;;;;;;12.10;10.90;;;;;;;21.46;67.60;96553.14;108923;1275;22543;-87
2023/09/13 21:57:13;;;;;;;14.10;10.10;;;;;;;21.36;68.33;96555.37;108900;1275;25345;-85
2023/09/13 21:59:58;;;;;;;11.40;9.80;;;;;;;21.20;69.30;96554.19;108884;1275;22521;-87
2023/09/13 22:02:44;;;;;;;11.20;10.00;;;;;;;21.06;70.28;96552.39;108894;1276;24102;-87
2023/09/13 22:05:22;;;;;;;12.70;10.60;;;;;;;20.94;71.22;96553.54;108873;1269;22510;-86
2023/09/13 22:08:16;;;;;;;11.00;9.90;;;;;;;20.85;71.42;96558.09;108877;1276;22546;-86